createdAt,value
2018-03-08T00:02:18.383Z,3.90
2018-03-08T00:04:46.044Z,3.80
2018-03-08T00:07:14.453Z,3.60
2018-03-08T00:09:42.104Z,3.60
2018-03-08T00:12:09.756Z,3.60
2018-03-08T00:14:38.130Z,3.60
2018-03-08T00:17:06.607Z,3.60
2018-03-08T00:19:35.029Z,3.60
2018-03-08T00:22:02.657Z,3.60
2018-03-08T00:24:31.121Z,3.50
2018-03-08T00:26:59.537Z,3.50
2018-03-08T00:29:27.165Z,3.50
2018-03-08T00:31:55.572Z,3.60
2018-03-08T00:34:23.233Z,3.60
2018-03-08T00:36:51.630Z,3.70
2018-03-08T00:39:19.312Z,3.70
2018-03-08T00:41:46.953Z,3.60
2018-03-08T00:44:14.562Z,3.70
2018-03-08T00:46:42.996Z,3.70
2018-03-08T00:49:10.636Z,3.70
2018-03-08T00:51:40.229Z,3.70
2018-03-08T00:54:07.897Z,3.90
2018-03-08T00:56:35.692Z,3.80
2018-03-08T00:59:03.404Z,3.80
2018-03-08T01:01:31.068Z,3.80
2018-03-08T01:03:58.716Z,3.80
2018-03-08T01:06:27.128Z,3.90
2018-03-08T01:08:55.569Z,4.00
2018-03-08T01:11:24.000Z,4.00
2018-03-08T01:13:51.624Z,4.00
2018-03-08T01:16:19.283Z,4.00
2018-03-08T01:18:46.943Z,4.10
2018-03-08T01:21:14.622Z,4.10
2018-03-08T01:23:42.272Z,4.10
2018-03-08T01:26:09.912Z,4.20
2018-03-08T01:28:38.292Z,4.30
2018-03-08T01:31:06.692Z,4.30
2018-03-08T01:33:34.354Z,4.20
2018-03-08T01:36:01.972Z,4.20
2018-03-08T01:38:30.413Z,4.30
2018-03-08T01:40:58.074Z,4.30
2018-03-08T01:43:25.693Z,4.40
2018-03-08T01:45:53.349Z,4.30
2018-03-08T01:48:21.778Z,4.30
2018-03-08T01:50:49.415Z,4.30
2018-03-08T01:53:17.085Z,4.30
2018-03-08T01:55:44.754Z,4.40
2018-03-08T01:58:12.430Z,4.40
2018-03-08T02:00:40.123Z,4.40
2018-03-08T02:03:08.601Z,4.30
2018-03-08T02:05:37.005Z,4.40
2018-03-08T02:08:04.647Z,4.40
2018-03-08T02:10:32.388Z,4.40
2018-03-08T02:13:00.769Z,4.30
2018-03-08T02:15:29.179Z,4.30
2018-03-08T02:17:56.824Z,4.30
2018-03-08T02:20:24.445Z,4.30
2018-03-08T02:22:52.095Z,4.30
2018-03-08T02:25:19.748Z,4.20
2018-03-08T02:27:47.379Z,4.20
2018-03-08T02:30:15.068Z,4.20
2018-03-08T02:32:42.715Z,4.20
2018-03-08T02:35:10.332Z,4.10
2018-03-08T02:37:38.752Z,4.00
2018-03-08T02:40:07.324Z,4.00
2018-03-08T02:42:34.936Z,4.00
2018-03-08T02:45:02.637Z,4.10
2018-03-08T02:47:30.331Z,4.00
2018-03-08T02:49:57.978Z,4.00
2018-03-08T02:52:25.642Z,3.90
2018-03-08T02:54:53.302Z,3.90
2018-03-08T02:57:20.934Z,3.90
2018-03-08T02:59:48.587Z,3.90
2018-03-08T03:02:16.252Z,3.90
2018-03-08T03:04:43.878Z,3.90
2018-03-08T03:07:12.330Z,3.90
2018-03-08T03:09:39.992Z,3.90
2018-03-08T03:12:07.626Z,3.90
2018-03-08T03:14:35.314Z,4.00
2018-03-08T03:17:03.019Z,4.00
2018-03-08T03:19:30.637Z,4.00
2018-03-08T03:21:58.293Z,4.00
2018-03-08T03:24:25.946Z,4.10
2018-03-08T03:26:53.572Z,4.10
2018-03-08T03:29:21.224Z,4.00
2018-03-08T03:31:48.879Z,4.00
2018-03-08T03:34:16.512Z,4.00
2018-03-08T03:36:44.165Z,4.00
2018-03-08T03:39:11.817Z,4.10
2018-03-08T03:41:39.436Z,4.10
2018-03-08T03:44:07.852Z,4.10
2018-03-08T03:46:35.504Z,4.00
2018-03-08T03:49:03.179Z,4.00
2018-03-08T03:51:30.827Z,4.10
2018-03-08T03:53:58.500Z,4.10
2018-03-08T03:56:26.110Z,4.10
2018-03-08T03:58:54.431Z,4.10
2018-03-08T04:01:22.673Z,4.10
2018-03-08T04:03:50.828Z,4.10
2018-03-08T04:06:19.167Z,4.10
2018-03-08T04:08:46.845Z,4.10
2018-03-08T04:11:15.262Z,4.00
2018-03-08T04:13:42.926Z,4.00
2018-03-08T04:16:10.575Z,4.00
2018-03-08T04:18:38.189Z,4.00
2018-03-08T04:21:06.607Z,4.00
2018-03-08T04:23:34.257Z,3.90
2018-03-08T04:26:01.896Z,4.00
2018-03-08T04:28:30.312Z,3.90
2018-03-08T04:30:57.995Z,3.90
2018-03-08T04:33:25.612Z,3.90
2018-03-08T04:35:53.302Z,3.90
2018-03-08T04:38:20.965Z,3.90
2018-03-08T04:40:48.626Z,3.70
2018-03-08T04:43:16.300Z,3.70
2018-03-08T04:45:43.959Z,3.60
2018-03-08T04:48:11.653Z,3.50
2018-03-08T04:50:40.111Z,3.40
2018-03-08T04:53:07.783Z,3.40
2018-03-08T04:55:36.163Z,3.40
2018-03-08T04:58:04.597Z,3.40
2018-03-08T05:00:32.260Z,3.40
2018-03-08T05:02:59.881Z,3.40
2018-03-08T05:05:28.305Z,3.50
2018-03-08T05:07:56.076Z,3.50
2018-03-08T05:10:24.165Z,3.50
2018-03-08T05:12:52.711Z,3.60
2018-03-08T05:15:20.352Z,3.60
2018-03-08T05:17:47.980Z,3.50
2018-03-08T05:20:16.408Z,3.50
2018-03-08T05:22:44.842Z,3.50
2018-03-08T05:25:13.230Z,3.60
2018-03-08T05:27:40.896Z,3.60
2018-03-08T05:30:08.629Z,3.60
2018-03-08T05:32:37.102Z,3.70
2018-03-08T05:35:04.787Z,3.60
2018-03-08T05:37:32.443Z,3.70
2018-03-08T05:40:00.896Z,3.70
2018-03-08T05:42:28.568Z,3.70
2018-03-08T05:44:56.986Z,3.60
2018-03-08T05:47:24.608Z,3.60
2018-03-08T05:49:53.042Z,3.70
2018-03-08T05:52:20.723Z,3.70
2018-03-08T05:54:48.356Z,3.60
2018-03-08T05:57:16.064Z,3.70
2018-03-08T05:59:44.505Z,3.80
2018-03-08T06:02:12.177Z,3.70
2018-03-08T06:04:39.975Z,3.70
2018-03-08T06:07:08.412Z,3.80
2018-03-08T06:09:36.070Z,3.80
2018-03-08T06:12:03.748Z,3.80
2018-03-08T06:14:32.232Z,3.80
2018-03-08T06:17:00.656Z,3.80
2018-03-08T06:19:28.925Z,3.80
2018-03-08T06:21:57.236Z,3.90
2018-03-08T06:24:26.619Z,3.80
2018-03-08T06:26:55.284Z,3.90
2018-03-08T06:29:23.112Z,3.80
2018-03-08T06:31:52.455Z,4.00
2018-03-08T06:34:21.634Z,4.00
2018-03-08T06:36:49.320Z,3.90
2018-03-08T06:39:17.041Z,4.00
2018-03-08T06:41:44.744Z,3.90
2018-03-08T06:44:12.450Z,3.90
2018-03-08T06:46:40.104Z,3.80
2018-03-08T06:49:07.780Z,3.70
2018-03-08T06:51:36.239Z,3.70
2018-03-08T06:54:04.042Z,3.70
2018-03-08T06:56:31.794Z,3.80
2018-03-08T06:59:01.717Z,4.40
2018-03-08T07:01:29.437Z,4.40
2018-03-08T07:03:57.132Z,4.80
2018-03-08T07:06:24.832Z,5.10
2018-03-08T07:08:52.497Z,5.20
2018-03-08T07:11:20.284Z,5.30
2018-03-08T07:13:47.940Z,5.40
2018-03-08T07:16:15.620Z,5.60
2018-03-08T07:18:43.290Z,5.90
2018-03-08T07:21:11.793Z,6.30
2018-03-08T07:23:39.449Z,6.30
2018-03-08T07:26:07.148Z,6.30
2018-03-08T07:28:34.870Z,6.30
2018-03-08T07:31:02.550Z,6.40
2018-03-08T07:33:30.257Z,6.50
2018-03-08T07:35:58.880Z,6.60
2018-03-08T07:38:26.542Z,6.90
2018-03-08T07:40:54.252Z,7.00
2018-03-08T07:43:21.962Z,6.90
2018-03-08T07:45:49.604Z,7.00
2018-03-08T07:48:17.943Z,7.30
2018-03-08T07:50:45.636Z,7.50
2018-03-08T07:53:14.037Z,7.70
2018-03-08T07:55:41.705Z,7.70
2018-03-08T07:58:09.433Z,7.80
2018-03-08T08:00:37.844Z,7.70
2018-03-08T08:03:05.585Z,7.60
2018-03-08T08:05:45.949Z,8.00
2018-03-08T08:08:25.590Z,8.00
2018-03-08T08:10:54.690Z,8.10
2018-03-08T08:13:22.360Z,8.10
2018-03-08T08:15:50.104Z,8.20
2018-03-08T08:18:18.545Z,8.30
2018-03-08T08:20:46.207Z,8.30
2018-03-08T08:23:13.898Z,8.50
2018-03-08T08:25:42.328Z,8.50
2018-03-08T08:28:09.969Z,8.50
2018-03-08T08:30:37.680Z,8.60
2018-03-08T08:33:05.370Z,8.70
2018-03-08T08:35:33.020Z,8.80
2018-03-08T08:38:01.516Z,9.10
2018-03-08T08:40:29.255Z,9.10
2018-03-08T08:42:57.679Z,9.10
2018-03-08T08:45:25.364Z,9.10
2018-03-08T08:47:53.939Z,9.20
2018-03-08T08:50:21.592Z,9.30
2018-03-08T08:52:49.285Z,9.40
2018-03-08T08:55:16.964Z,9.50
2018-03-08T08:57:45.377Z,9.60
2018-03-08T09:00:13.122Z,9.60
2018-03-08T09:02:41.018Z,9.90
2018-03-08T09:05:08.876Z,10.10
2018-03-08T09:07:36.660Z,10.00
2018-03-08T09:10:04.340Z,9.90
2018-03-08T09:12:32.097Z,9.60
2018-03-08T09:15:00.611Z,9.20
2018-03-08T09:17:28.310Z,9.20
2018-03-08T09:19:55.992Z,9.10
2018-03-08T09:22:23.748Z,8.90
2018-03-08T09:24:51.433Z,8.80
2018-03-08T09:27:19.876Z,8.80
2018-03-08T09:29:47.602Z,8.80
2018-03-08T09:32:15.340Z,8.70
2018-03-08T09:34:43.020Z,8.70
2018-03-08T09:37:10.758Z,8.80
2018-03-08T09:39:39.258Z,9.10
2018-03-08T09:42:06.942Z,9.10
2018-03-08T09:44:34.604Z,9.10
2018-03-08T09:47:02.339Z,8.90
2018-03-08T09:49:30.761Z,8.70
2018-03-08T09:51:59.150Z,9.00
2018-03-08T09:54:26.869Z,9.10
2018-03-08T09:56:54.556Z,9.30
2018-03-08T09:59:22.239Z,9.30
2018-03-08T10:01:49.924Z,9.30
2018-03-08T10:04:18.312Z,9.20
2018-03-08T10:06:46.000Z,9.20
2018-03-08T10:09:13.745Z,9.10
2018-03-08T10:11:41.417Z,9.10
2018-03-08T10:14:09.112Z,9.10
2018-03-08T10:16:36.843Z,9.10
2018-03-08T10:19:04.616Z,9.20
2018-03-08T10:21:46.431Z,9.40
2018-03-08T10:24:00.276Z,9.80
2018-03-08T10:26:27.949Z,10.00
2018-03-08T10:28:55.645Z,10.10
2018-03-08T10:31:23.301Z,10.00
2018-03-08T10:33:50.911Z,10.00
2018-03-08T10:36:18.870Z,9.70
2018-03-08T10:38:46.540Z,9.50
2018-03-08T10:41:14.242Z,9.40
2018-03-08T10:43:42.658Z,9.20
2018-03-08T10:46:10.338Z,9.20
2018-03-08T10:48:38.016Z,9.30
2018-03-08T10:51:06.507Z,9.20
2018-03-08T10:53:34.175Z,9.20
2018-03-08T10:56:02.620Z,9.00
2018-03-08T10:58:30.346Z,9.00
2018-03-08T11:00:58.046Z,8.90
2018-03-08T11:06:30.395Z,8.80
2018-03-08T11:08:58.066Z,8.80
2018-03-08T11:11:25.736Z,8.70
2018-03-08T11:13:53.439Z,8.70
2018-03-08T11:16:21.917Z,8.60
2018-03-08T11:18:51.240Z,8.60
2018-03-08T11:21:18.898Z,8.60
2018-03-08T11:23:46.574Z,8.70
2018-03-08T11:26:14.227Z,8.70
2018-03-08T11:28:41.960Z,8.70
2018-03-08T11:31:10.404Z,8.80
2018-03-08T11:33:38.076Z,8.80
2018-03-08T11:36:05.751Z,9.00
2018-03-08T11:38:34.254Z,9.30
2018-03-08T11:41:01.985Z,9.30
2018-03-08T11:43:29.632Z,9.30
2018-03-08T11:45:57.292Z,9.40
2018-03-08T11:48:25.005Z,9.40
2018-03-08T11:50:52.685Z,9.60
2018-03-08T11:53:20.424Z,9.70
2018-03-08T11:55:48.205Z,10.00
2018-03-08T11:58:15.860Z,10.10
2018-03-08T12:00:43.516Z,10.40
2018-03-08T12:03:11.198Z,10.40
2018-03-08T12:05:38.857Z,10.30
2018-03-08T12:08:07.441Z,10.60
2018-03-08T12:10:36.056Z,11.00
2018-03-08T12:13:03.733Z,11.30
2018-03-08T12:15:32.216Z,11.20
2018-03-08T12:18:00.711Z,11.50
2018-03-08T12:20:28.404Z,11.50
2018-03-08T12:22:56.087Z,11.50
2018-03-08T12:25:23.807Z,11.50
2018-03-08T12:27:51.484Z,11.50
2018-03-08T12:30:19.132Z,11.50
2018-03-08T12:32:46.837Z,11.70
2018-03-08T12:35:14.504Z,11.70
2018-03-08T12:37:42.217Z,11.80
2018-03-08T12:40:09.910Z,11.80
2018-03-08T12:42:37.539Z,11.70
2018-03-08T12:45:05.340Z,11.30
2018-03-08T12:47:33.051Z,11.30
2018-03-08T12:50:00.685Z,11.30
2018-03-08T12:52:29.244Z,11.30
2018-03-08T12:54:56.975Z,11.30
2018-03-08T12:57:24.667Z,11.20
2018-03-08T12:59:52.354Z,11.10
2018-03-08T13:02:20.837Z,11.10
2018-03-08T13:04:49.263Z,11.10
2018-03-08T13:07:16.964Z,11.10
2018-03-08T13:09:45.436Z,10.50
2018-03-08T13:12:13.127Z,10.50
2018-03-08T13:14:41.084Z,10.40
2018-03-08T13:17:08.773Z,10.30
2018-03-08T13:19:36.483Z,10.30
2018-03-08T13:22:04.214Z,10.30
2018-03-08T13:24:31.955Z,10.40
2018-03-08T13:26:59.644Z,10.50
2018-03-08T13:29:27.328Z,10.60
2018-03-08T13:31:55.028Z,10.70
2018-03-08T13:34:22.767Z,10.80
2018-03-08T13:36:51.212Z,10.90
2018-03-08T13:39:18.896Z,10.80
2018-03-08T13:41:47.309Z,11.00
2018-03-08T13:44:15.020Z,11.00
2018-03-08T13:46:42.697Z,11.00
2018-03-08T13:49:22.913Z,11.10
2018-03-08T13:51:50.612Z,11.00
2018-03-08T13:54:19.080Z,11.00
2018-03-08T13:56:47.157Z,11.00
2018-03-08T13:59:14.912Z,11.00
2018-03-08T14:01:42.578Z,11.00
2018-03-08T14:04:11.046Z,11.10
2018-03-08T14:06:38.869Z,11.00
2018-03-08T14:09:06.512Z,11.20
2018-03-08T14:11:34.240Z,11.40
2018-03-08T14:14:01.927Z,11.70
2018-03-08T14:16:29.620Z,11.70
2018-03-08T14:18:57.297Z,11.60
2018-03-08T14:21:25.100Z,11.40
2018-03-08T14:23:53.517Z,11.30
2018-03-08T14:26:21.252Z,11.30
2018-03-08T14:28:48.995Z,11.30
2018-03-08T14:31:17.418Z,11.40
2018-03-08T14:33:46.106Z,11.40
2018-03-08T14:36:14.479Z,11.50
2018-03-08T14:38:42.133Z,11.60
2018-03-08T14:41:09.806Z,11.70
2018-03-08T14:43:38.319Z,11.60
2018-03-08T14:46:05.951Z,11.60
2018-03-08T14:48:33.613Z,11.40
2018-03-08T14:51:01.358Z,11.30
2018-03-08T14:53:29.077Z,11.10
2018-03-08T14:55:57.521Z,10.80
2018-03-08T14:58:25.241Z,10.80
2018-03-08T15:00:52.884Z,10.70
2018-03-08T15:03:21.359Z,10.60
2018-03-08T15:05:49.876Z,10.50
2018-03-08T15:08:17.541Z,10.50
2018-03-08T15:10:45.237Z,10.50
2018-03-08T15:13:12.940Z,10.40
2018-03-08T15:15:41.388Z,10.50
2018-03-08T15:18:09.103Z,10.50
2018-03-08T15:20:36.757Z,10.40
2018-03-08T15:23:04.405Z,10.40
2018-03-08T15:25:32.070Z,10.40
2018-03-08T15:27:59.746Z,10.50
2018-03-08T15:30:27.360Z,10.50
2018-03-08T15:32:57.273Z,10.40
2018-03-08T15:35:26.677Z,10.40
2018-03-08T15:37:55.088Z,10.40
2018-03-08T15:40:22.778Z,10.40
2018-03-08T15:42:50.497Z,10.40
2018-03-08T15:45:18.201Z,10.40
2018-03-08T15:47:45.905Z,10.40
2018-03-08T15:50:14.383Z,10.40
2018-03-08T15:52:42.834Z,10.40
2018-03-08T15:55:11.323Z,10.30
2018-03-08T15:57:38.994Z,10.30
2018-03-08T16:00:08.435Z,10.30
2018-03-08T16:02:36.145Z,10.20
2018-03-08T16:05:03.918Z,10.20
2018-03-08T16:07:54.217Z,10.10
2018-03-08T16:10:40.418Z,10.20
2018-03-08T16:13:08.869Z,10.10
2018-03-08T16:15:36.547Z,10.10
2018-03-08T16:18:05.012Z,10.10
2018-03-08T16:20:32.724Z,10.00
2018-03-08T16:23:00.465Z,10.00
2018-03-08T16:25:28.193Z,9.90
2018-03-08T16:27:56.023Z,9.80
2018-03-08T16:30:23.707Z,9.70
2018-03-08T16:32:51.872Z,9.70
2018-03-08T16:35:20.568Z,9.60
2018-03-08T16:37:48.626Z,9.50
2018-03-08T16:40:16.388Z,9.40
2018-03-08T16:42:44.120Z,9.30
2018-03-08T16:45:11.837Z,9.20
2018-03-08T16:47:40.330Z,9.10
2018-03-08T16:50:08.133Z,9.10
2018-03-08T16:52:35.814Z,9.10
2018-03-08T16:55:03.533Z,9.10
2018-03-08T16:57:31.265Z,9.00
2018-03-08T16:59:58.957Z,8.90
2018-03-08T17:02:26.650Z,8.90
2018-03-08T17:04:54.892Z,8.80
2018-03-08T17:07:23.675Z,8.70
2018-03-08T17:09:52.894Z,8.50
2018-03-08T17:12:21.001Z,8.40
2018-03-08T17:14:48.938Z,8.40
2018-03-08T17:17:20.712Z,8.20
2018-03-08T17:19:50.097Z,8.00
2018-03-08T17:22:19.547Z,7.90
2018-03-08T17:24:47.587Z,7.90
2018-03-08T17:27:20.304Z,7.80
2018-03-08T17:29:53.544Z,7.60
2018-03-08T17:32:22.803Z,7.50
2018-03-08T17:34:50.904Z,7.40
2018-03-08T17:37:19.441Z,7.30
2018-03-08T17:39:47.680Z,7.20
2018-03-08T17:42:16.757Z,7.00
2018-03-08T17:44:44.995Z,7.00
2018-03-08T17:47:15.508Z,7.00
2018-03-08T17:49:43.864Z,6.90
2018-03-08T17:52:13.635Z,6.90
2018-03-08T17:54:43.081Z,6.80
2018-03-08T17:57:12.077Z,6.90
2018-03-08T17:59:40.590Z,6.80
2018-03-08T18:02:09.568Z,6.80
2018-03-08T18:04:37.801Z,6.70
2018-03-08T18:07:07.606Z,6.60
2018-03-08T18:09:36.130Z,6.60
2018-03-08T18:12:04.610Z,6.50
2018-03-08T18:14:33.664Z,6.30
2018-03-08T18:17:01.875Z,6.30
2018-03-08T18:19:29.617Z,6.20
2018-03-08T18:21:57.315Z,6.10
2018-03-08T18:24:25.006Z,6.10
2018-03-08T18:26:52.729Z,6.10
2018-03-08T18:29:20.400Z,6.00
2018-03-08T18:31:48.219Z,6.00
2018-03-08T18:34:16.139Z,5.90
2018-03-08T18:36:44.118Z,5.90
2018-03-08T18:39:12.169Z,5.90
2018-03-08T18:41:39.865Z,5.90
2018-03-08T18:44:07.522Z,5.90
2018-03-08T18:46:35.208Z,5.90
2018-03-08T18:49:02.908Z,5.90
2018-03-08T18:51:30.595Z,5.90
2018-03-08T18:53:58.469Z,5.90
2018-03-08T18:56:26.197Z,5.90
2018-03-08T18:58:54.107Z,5.90
2018-03-08T19:01:21.877Z,5.90
2018-03-08T19:03:49.626Z,5.90
2018-03-08T19:06:18.107Z,5.90
2018-03-08T19:08:46.730Z,6.00
2018-03-08T19:11:14.527Z,6.00
2018-03-08T19:13:42.211Z,5.90
2018-03-08T19:16:09.987Z,5.90
2018-03-08T19:18:37.745Z,5.80
2018-03-08T19:21:05.450Z,5.70
2018-03-08T19:23:33.293Z,5.60
2018-03-08T19:26:01.885Z,5.40
2018-03-08T19:28:30.368Z,5.40
2018-03-08T19:30:58.071Z,5.40
2018-03-08T19:33:26.044Z,5.30
2018-03-08T19:35:53.683Z,5.40
2018-03-08T19:38:21.387Z,5.40
2018-03-08T19:40:49.171Z,5.30
2018-03-08T19:43:16.897Z,5.30
2018-03-08T19:45:46.224Z,5.30
2018-03-08T19:48:14.944Z,5.20
2018-03-08T19:50:42.694Z,5.20
2018-03-08T19:53:10.661Z,5.20
2018-03-08T19:55:38.560Z,5.20
2018-03-08T19:58:06.338Z,5.10
2018-03-08T20:00:34.060Z,5.10
2018-03-08T20:03:02.008Z,5.10
2018-03-08T20:05:30.714Z,5.10
2018-03-08T20:07:58.696Z,5.10
2018-03-08T20:10:26.572Z,5.10
2018-03-08T20:12:54.334Z,5.00
2018-03-08T20:15:22.162Z,5.20
2018-03-08T20:17:49.982Z,5.20
2018-03-08T20:20:18.708Z,5.10
2018-03-08T20:22:46.581Z,5.10
2018-03-08T20:25:14.452Z,5.10
2018-03-08T20:27:42.283Z,5.10
2018-03-08T20:30:10.186Z,5.00
2018-03-08T20:32:37.958Z,5.00
2018-03-08T20:35:05.651Z,5.00
2018-03-08T20:37:34.269Z,4.90
2018-03-08T20:40:02.040Z,4.90
2018-03-08T20:42:29.775Z,4.90
2018-03-08T20:44:57.477Z,4.90
2018-03-08T20:47:25.320Z,5.00
2018-03-08T20:49:53.080Z,5.00
2018-03-08T20:52:21.647Z,4.90
2018-03-08T20:54:50.119Z,5.00
2018-03-08T20:57:17.825Z,5.00
2018-03-08T20:59:45.585Z,5.00
2018-03-08T21:02:13.421Z,4.90
2018-03-08T21:04:41.177Z,4.90
2018-03-08T21:07:08.943Z,4.90
2018-03-08T21:09:37.620Z,4.80
2018-03-08T21:12:05.576Z,4.80
2018-03-08T21:14:33.340Z,4.70
2018-03-08T21:17:01.114Z,4.70
2018-03-08T21:19:28.880Z,4.70
2018-03-08T21:21:57.432Z,4.70
2018-03-08T21:24:25.144Z,4.70
2018-03-08T21:26:52.784Z,4.80
2018-03-08T21:29:21.231Z,4.90
2018-03-08T21:31:48.899Z,4.90
2018-03-08T21:34:16.524Z,4.90
2018-03-08T21:36:44.287Z,5.00
2018-03-08T21:39:12.230Z,4.90
2018-03-08T21:41:39.953Z,4.90
2018-03-08T21:44:08.810Z,4.80
2018-03-08T21:46:36.600Z,4.80
2018-03-08T21:49:04.503Z,4.80
2018-03-08T21:51:32.345Z,4.90
2018-03-08T21:54:00.223Z,4.90
2018-03-08T21:56:28.942Z,5.00
2018-03-08T21:58:56.714Z,5.00
2018-03-08T22:01:24.481Z,5.00
2018-03-08T22:03:52.364Z,5.00
2018-03-08T22:06:24.967Z,5.10
2018-03-08T22:08:53.455Z,5.10
2018-03-08T22:11:21.165Z,5.10
2018-03-08T22:13:49.122Z,5.20
2018-03-08T22:16:16.905Z,5.20
2018-03-08T22:18:44.593Z,5.10
2018-03-08T22:21:12.360Z,5.20
2018-03-08T22:23:40.865Z,5.30
2018-03-08T22:26:08.734Z,5.30
2018-03-08T22:28:37.534Z,5.30
2018-03-08T22:31:05.656Z,5.40
2018-03-08T22:33:34.108Z,5.40
2018-03-08T22:36:01.854Z,5.30
2018-03-08T22:38:29.718Z,5.30
2018-03-08T22:40:57.366Z,5.30
2018-03-08T22:43:25.144Z,5.30
2018-03-08T22:45:52.962Z,5.40
2018-03-08T22:48:21.428Z,5.60
2018-03-08T22:50:49.877Z,5.70
2018-03-08T22:53:17.654Z,5.70
2018-03-08T22:55:45.400Z,5.80
2018-03-08T22:58:13.271Z,5.80
2018-03-08T23:00:41.088Z,5.80
2018-03-08T23:03:14.849Z,5.80
2018-03-08T23:05:42.606Z,5.80
2018-03-08T23:08:10.315Z,5.80
2018-03-08T23:10:38.063Z,5.80
2018-03-08T23:13:06.568Z,5.80
2018-03-08T23:15:34.316Z,5.70
2018-03-08T23:18:02.007Z,5.70
2018-03-08T23:20:29.803Z,5.70
2018-03-08T23:22:57.467Z,5.70
2018-03-08T23:25:25.141Z,5.70
2018-03-08T23:27:53.616Z,5.50
2018-03-08T23:30:22.002Z,5.50
2018-03-08T23:32:50.454Z,5.60
2018-03-08T23:35:18.157Z,5.60
2018-03-08T23:37:45.788Z,5.60
2018-03-08T23:40:14.275Z,5.60
2018-03-08T23:42:42.700Z,5.70
2018-03-08T23:45:10.316Z,5.70
2018-03-08T23:47:38.748Z,5.70
2018-03-08T23:50:06.429Z,5.60
2018-03-08T23:52:34.062Z,5.60
2018-03-08T23:55:01.706Z,5.60
2018-03-08T23:57:30.130Z,5.50
2018-03-08T23:59:57.825Z,5.50
